Time;durP1;ratioP1;P1;durP2;ratioP2;P2;SDS_P1;SDS_P2;PMS_P1;PMS_P2;Temp;Humidity;BMP_temperature;BMP_pressure;BME280_temperature;BME280_humidity;BME280_pressure;Samples;Min_cycle;Max_cycle;Signal;HPM_P1;HPM_P2
2022/10/28 00:00:25;;;;;;;;;;;15.00;99.90;;;;;;5050428;28;19929;-57
2022/10/28 00:02:52;;;;;;;;;;;15.00;99.90;;;;;;5051022;28;19929;-57
2022/10/28 00:05:18;;;;;;;;;;;15.00;99.90;;;;;;5051638;28;19928;-57
2022/10/28 00:07:45;;;;;;;;;;;14.90;99.90;;;;;;5050078;28;20400;-58
2022/10/28 00:10:11;;;;;;;;;;;14.90;99.90;;;;;;5052144;28;19928;-57
2022/10/28 00:12:38;;;;;;;;;;;14.90;99.90;;;;;;5050464;28;19935;-57
2022/10/28 00:15:07;;;;;;;;;;;14.90;99.90;;;;;;5050594;28;19928;-58
2022/10/28 00:17:33;;;;;;;;;;;14.90;99.90;;;;;;5050863;28;20018;-57
2022/10/28 00:20:00;;;;;;;;;;;14.90;99.90;;;;;;5049040;28;19928;-57
2022/10/28 00:22:27;;;;;;;;;;;14.90;99.90;;;;;;5050273;28;21815;-57
2022/10/28 00:24:54;;;;;;;;;;;14.90;99.90;;;;;;5051173;28;19935;-57
2022/10/28 00:27:20;;;;;;;;;;;14.90;99.90;;;;;;5047599;28;19940;-57
2022/10/28 00:29:47;;;;;;;;;;;15.00;99.90;;;;;;5050825;28;19935;-57
2022/10/28 00:32:15;;;;;;;;;;;15.00;99.90;;;;;;5049516;28;19939;-57
2022/10/28 00:34:41;;;;;;;;;;;15.00;99.90;;;;;;5050659;28;19936;-57
2022/10/28 00:37:08;;;;;;;;;;;15.00;99.90;;;;;;5049338;28;19940;-57
2022/10/28 00:39:35;;;;;;;;;;;14.90;99.90;;;;;;5049343;28;20396;-57
2022/10/28 00:42:02;;;;;;;;;;;14.90;99.90;;;;;;5048683;28;19933;-57
2022/10/28 00:44:56;;;;;;;;;;;15.00;99.90;;;;;;5048508;28;19969;-57
2022/10/28 00:47:28;;;;;;;;;;;14.90;99.90;;;;;;4997545;28;19967;-57
2022/10/28 00:49:58;;;;;;;;;;;15.00;99.90;;;;;;5048344;28;20374;-57
2022/10/28 00:52:27;;;;;;;;;;;15.10;99.90;;;;;;5050140;28;19951;-57
2022/10/28 00:54:54;;;;;;;;;;;15.10;99.90;;;;;;5047484;28;19928;-57
2022/10/28 00:57:22;;;;;;;;;;;15.10;99.90;;;;;;5049831;28;21746;-58
2022/10/28 00:59:50;;;;;;;;;;;15.20;99.90;;;;;;5048679;28;20639;-57
2022/10/28 01:02:18;;;;;;;;;;;15.20;99.90;;;;;;5049571;28;19936;-57
2022/10/28 01:04:46;;;;;;;;;;;15.30;99.90;;;;;;5049721;28;19928;-57
2022/10/28 01:07:13;;;;;;;;;;;15.30;99.90;;;;;;5049782;28;20515;-57
2022/10/28 01:09:40;;;;;;;;;;;15.30;99.90;;;;;;5048298;28;20139;-57
2022/10/28 01:12:10;;;;;;;;;;;15.30;99.90;;;;;;5048910;28;19935;-57
2022/10/28 01:14:46;;;;;;;;;;;15.40;99.90;;;;;;5045231;28;20281;-57
2022/10/28 01:17:18;;;;;;;;;;;15.40;99.90;;;;;;5049178;28;20310;-57
2022/10/28 01:20:00;;;;;;;;;;;15.40;99.90;;;;;;5044364;28;19929;-57
2022/10/28 01:22:30;;;;;;;;;;;15.40;99.90;;;;;;5032349;28;19933;-57
2022/10/28 01:25:06;;;;;;;;;;;15.50;99.90;;;;;;5049351;28;19928;-57
2022/10/28 01:27:55;;;;;;;;;;;15.50;99.90;;;;;;5047796;28;20399;-57
2022/10/28 01:30:23;;;;;;;;;;;15.50;99.90;;;;;;5049129;28;19937;-57
2022/10/28 01:32:55;;;;;;;;;;;15.50;99.90;;;;;;5047733;28;19929;-57
2022/10/28 01:35:25;;;;;;;;;;;15.40;99.90;;;;;;5049120;28;20862;-57
2022/10/28 01:38:08;;;;;;;;;;;15.40;99.90;;;;;;5048471;28;19933;-57
2022/10/28 01:40:38;;;;;;;;;;;15.40;99.90;;;;;;5049232;28;20430;-57
2022/10/28 01:43:08;;;;;;;;;;;15.30;99.90;;;;;;5048265;28;20391;-57
2022/10/28 01:45:38;;;;;;;;;;;15.30;99.90;;;;;;5048287;28;19929;-57
2022/10/28 01:48:09;;;;;;;;;;;15.20;99.90;;;;;;5047278;28;19932;-57
2022/10/28 01:50:37;;;;;;;;;;;15.20;99.90;;;;;;5048414;28;20375;-57
2022/10/28 01:53:06;;;;;;;;;;;15.10;99.90;;;;;;5047835;28;19929;-57
2022/10/28 01:55:35;;;;;;;;;;;15.10;99.90;;;;;;5048904;28;20441;-57
2022/10/28 01:58:03;;;;;;;;;;;15.00;99.90;;;;;;5046090;28;19940;-57
2022/10/28 02:00:31;;;;;;;;;;;15.00;99.90;;;;;;5047949;28;19967;-57
2022/10/28 02:02:57;;;;;;;;;;;15.00;99.90;;;;;;5048429;28;19979;-57
2022/10/28 02:05:38;;;;;;;;;;;15.00;99.90;;;;;;5048714;28;20389;-57
2022/10/28 02:08:10;;;;;;;;;;;15.00;99.90;;;;;;5047785;28;20788;-57
2022/10/28 02:10:38;;;;;;;;;;;15.00;99.90;;;;;;5048579;28;19936;-57
2022/10/28 02:13:07;;;;;;;;;;;14.90;99.90;;;;;;5046197;28;19929;-57
2022/10/28 02:15:39;;;;;;;;;;;14.80;99.90;;;;;;5048131;28;20740;-57
2022/10/28 02:18:20;;;;;;;;;;;14.80;99.90;;;;;;5047064;28;20682;-57
2022/10/28 02:20:51;;;;;;;;;;;14.80;99.90;;;;;;5044447;28;19940;-57
2022/10/28 02:23:22;;;;;;;;;;;14.70;99.90;;;;;;5048031;28;19935;-57
2022/10/28 02:25:52;;;;;;;;;;;14.70;99.90;;;;;;5047061;28;20098;-57
2022/10/28 02:28:21;;;;;;;;;;;14.60;99.90;;;;;;5047273;28;20510;-57
2022/10/28 02:30:51;;;;;;;;;;;14.60;99.90;;;;;;5047514;28;19928;-57
2022/10/28 02:33:19;;;;;;;;;;;14.60;99.90;;;;;;5047680;28;19929;-57
2022/10/28 02:35:47;;;;;;;;;;;14.50;99.90;;;;;;5047728;28;20373;-57
2022/10/28 02:38:17;;;;;;;;;;;14.50;99.90;;;;;;5047106;28;19932;-57
2022/10/28 02:40:47;;;;;;;;;;;14.50;99.90;;;;;;5048564;28;19928;-57
2022/10/28 02:43:15;;;;;;;;;;;14.50;99.90;;;;;;5046420;28;20449;-57
2022/10/28 02:45:44;;;;;;;;;;;14.60;99.90;;;;;;5047476;28;19929;-57
2022/10/28 02:48:13;;;;;;;;;;;14.70;99.90;;;;;;5046221;28;19932;-57
2022/10/28 02:50:43;;;;;;;;;;;14.70;99.90;;;;;;5048024;28;20356;-57
2022/10/28 02:53:13;;;;;;;;;;;14.80;99.90;;;;;;5047974;28;19929;-57
2022/10/28 02:55:43;;;;;;;;;;;14.80;99.90;;;;;;5047096;28;20094;-57
2022/10/28 02:58:10;;;;;;;;;;;14.80;99.90;;;;;;5045803;28;19933;-57
2022/10/28 03:00:37;;;;;;;;;;;14.70;99.90;;;;;;5046385;28;19928;-57
2022/10/28 03:03:04;;;;;;;;;;;14.60;99.90;;;;;;5046480;28;19929;-57
2022/10/28 03:05:30;;;;;;;;;;;14.60;99.90;;;;;;5046868;28;19928;-57
2022/10/28 03:07:57;;;;;;;;;;;14.50;99.90;;;;;;5046612;28;19933;-57
2022/10/28 03:10:24;;;;;;;;;;;14.40;99.90;;;;;;5047947;28;19952;-57
2022/10/28 03:12:51;;;;;;;;;;;14.40;99.90;;;;;;5047669;28;19940;-57
2022/10/28 03:15:18;;;;;;;;;;;14.30;99.90;;;;;;5046090;28;19928;-57
2022/10/28 03:17:45;;;;;;;;;;;14.30;99.90;;;;;;5046508;28;19943;-57
2022/10/28 03:20:11;;;;;;;;;;;14.20;99.90;;;;;;5047076;28;20128;-57
2022/10/28 03:22:38;;;;;;;;;;;14.20;99.90;;;;;;5047327;28;19928;-57
2022/10/28 03:25:05;;;;;;;;;;;14.20;99.90;;;;;;5048502;28;19928;-58
2022/10/28 03:27:32;;;;;;;;;;;14.10;99.90;;;;;;5046616;28;20451;-57
2022/10/28 03:30:00;;;;;;;;;;;14.10;99.90;;;;;;5046894;28;19936;-57
2022/10/28 03:32:26;;;;;;;;;;;14.10;99.90;;;;;;5046811;28;19933;-57
2022/10/28 03:34:53;;;;;;;;;;;14.10;99.90;;;;;;5047042;28;19951;-57
2022/10/28 03:37:22;;;;;;;;;;;14.10;99.90;;;;;;5048175;28;19932;-57
2022/10/28 03:39:49;;;;;;;;;;;14.10;99.90;;;;;;5047571;28;20019;-58
2022/10/28 03:42:15;;;;;;;;;;;14.10;99.90;;;;;;5045839;28;19951;-57
2022/10/28 03:44:42;;;;;;;;;;;14.10;99.90;;;;;;5044618;28;20410;-57
2022/10/28 03:47:10;;;;;;;;;;;14.10;99.90;;;;;;5047595;28;19933;-57
2022/10/28 03:49:37;;;;;;;;;;;14.10;99.90;;;;;;5046018;28;20741;-57
2022/10/28 03:52:03;;;;;;;;;;;14.00;99.90;;;;;;5047291;28;20403;-57
2022/10/28 03:54:30;;;;;;;;;;;14.00;99.90;;;;;;5046234;28;19936;-57
2022/10/28 03:56:57;;;;;;;;;;;14.00;99.90;;;;;;5048543;28;19943;-57
2022/10/28 03:59:23;;;;;;;;;;;14.00;99.90;;;;;;5045564;28;19929;-57
2022/10/28 04:01:50;;;;;;;;;;;14.10;99.90;;;;;;5048314;28;20023;-57
2022/10/28 04:04:18;;;;;;;;;;;14.00;99.90;;;;;;5048564;28;19929;-57
2022/10/28 04:06:45;;;;;;;;;;;14.10;99.90;;;;;;5047007;28;19933;-57
2022/10/28 04:09:11;;;;;;;;;;;14.10;99.90;;;;;;5048306;28;19936;-57
2022/10/28 04:11:38;;;;;;;;;;;14.00;99.90;;;;;;5050340;28;19980;-57
2022/10/28 04:14:04;;;;;;;;;;;14.00;99.90;;;;;;5050643;28;19929;-57
2022/10/28 04:16:31;;;;;;;;;;;14.10;99.90;;;;;;5050833;28;19955;-57
2022/10/28 04:18:58;;;;;;;;;;;14.10;99.90;;;;;;5051299;28;20400;-57
2022/10/28 04:21:26;;;;;;;;;;;14.10;99.90;;;;;;5047614;28;19929;-57
2022/10/28 04:23:53;;;;;;;;;;;14.20;99.90;;;;;;5048521;28;19929;-57
2022/10/28 04:26:19;;;;;;;;;;;14.30;99.90;;;;;;5050193;28;19933;-56
2022/10/28 04:28:46;;;;;;;;;;;14.30;99.90;;;;;;5049352;28;20473;-57
2022/10/28 04:31:12;;;;;;;;;;;14.40;99.90;;;;;;5050678;28;19952;-57
2022/10/28 04:33:39;;;;;;;;;;;14.40;99.90;;;;;;5049803;28;19979;-57
2022/10/28 04:36:06;;;;;;;;;;;14.40;99.90;;;;;;5051173;28;19938;-57
2022/10/28 04:38:34;;;;;;;;;;;14.40;99.90;;;;;;5050957;28;19929;-57
2022/10/28 04:41:01;;;;;;;;;;;14.30;99.90;;;;;;5050749;28;19935;-57
2022/10/28 04:43:27;;;;;;;;;;;14.30;99.90;;;;;;5050732;28;20105;-57
2022/10/28 04:45:54;;;;;;;;;;;14.30;99.90;;;;;;5051100;28;20658;-57
2022/10/28 04:48:21;;;;;;;;;;;14.30;99.90;;;;;;5050329;28;20019;-57
2022/10/28 04:50:47;;;;;;;;;;;14.40;99.90;;;;;;5050550;28;19928;-57
2022/10/28 04:53:14;;;;;;;;;;;14.40;99.90;;;;;;5050801;28;19951;-57
2022/10/28 04:55:42;;;;;;;;;;;14.50;99.90;;;;;;5050592;28;20376;-57
2022/10/28 04:58:09;;;;;;;;;;;14.50;99.90;;;;;;5049586;28;20408;-57
2022/10/28 05:00:36;;;;;;;;;;;14.50;99.90;;;;;;5050536;28;20389;-57
2022/10/28 05:03:03;;;;;;;;;;;14.60;99.90;;;;;;5051198;28;19935;-57
2022/10/28 05:05:29;;;;;;;;;;;14.60;99.90;;;;;;5051550;28;20023;-57
2022/10/28 05:07:56;;;;;;;;;;;14.60;99.90;;;;;;5050967;28;19935;-57
2022/10/28 05:10:23;;;;;;;;;;;14.60;99.90;;;;;;5052660;28;19929;-57
2022/10/28 05:12:51;;;;;;;;;;;14.60;99.90;;;;;;5051262;28;19928;-57
2022/10/28 05:15:17;;;;;;;;;;;14.50;99.90;;;;;;5051727;28;19933;-57
2022/10/28 05:17:45;;;;;;;;;;;14.50;99.90;;;;;;5050935;28;19935;-57
2022/10/28 05:20:15;;;;;;;;;;;14.50;99.90;;;;;;5051025;28;19952;-57
2022/10/28 05:22:45;;;;;;;;;;;14.40;99.90;;;;;;5051075;28;19935;-57
2022/10/28 05:25:12;;;;;;;;;;;14.40;99.90;;;;;;5049979;28;19933;-57
2022/10/28 05:27:38;;;;;;;;;;;14.40;99.90;;;;;;5048128;28;19929;-57
2022/10/28 05:30:07;;;;;;;;;;;14.40;99.90;;;;;;5049883;28;19934;-57
2022/10/28 05:32:34;;;;;;;;;;;14.40;99.90;;;;;;5051125;28;20403;-57
2022/10/28 05:35:01;;;;;;;;;;;14.40;99.90;;;;;;5051183;28;19933;-57
2022/10/28 05:37:28;;;;;;;;;;;14.40;99.90;;;;;;5049276;28;19935;-57
2022/10/28 05:39:54;;;;;;;;;;;14.40;99.90;;;;;;5050871;28;19935;-57
2022/10/28 05:42:21;;;;;;;;;;;14.40;99.90;;;;;;5049586;28;19944;-57
2022/10/28 05:44:47;;;;;;;;;;;14.40;99.90;;;;;;5045196;28;19939;-57
2022/10/28 05:47:16;;;;;;;;;;;14.40;99.90;;;;;;5048321;28;19929;-57
2022/10/28 05:49:42;;;;;;;;;;;14.40;99.90;;;;;;5049072;28;19936;-57
2022/10/28 05:52:09;;;;;;;;;;;14.40;99.90;;;;;;5050142;28;19928;-57
2022/10/28 05:54:36;;;;;;;;;;;14.40;99.90;;;;;;5050354;28;19939;-57
2022/10/28 05:57:02;;;;;;;;;;;14.40;99.90;;;;;;5050071;28;19929;-57
2022/10/28 05:59:29;;;;;;;;;;;14.40;99.90;;;;;;5051591;28;19928;-57
2022/10/28 06:01:55;;;;;;;;;;;14.40;99.90;;;;;;5049048;28;19929;-57
2022/10/28 06:04:24;;;;;;;;;;;14.40;99.90;;;;;;5049879;28;19940;-57
2022/10/28 06:06:50;;;;;;;;;;;14.40;99.90;;;;;;5048863;28;19933;-57
2022/10/28 06:09:17;;;;;;;;;;;14.50;99.90;;;;;;5050318;28;19932;-57
2022/10/28 06:11:44;;;;;;;;;;;14.50;99.90;;;;;;5049875;28;20075;-57
2022/10/28 06:14:10;;;;;;;;;;;14.50;99.90;;;;;;5047964;28;19939;-57
2022/10/28 06:16:37;;;;;;;;;;;14.50;99.90;;;;;;5049915;28;20905;-57
2022/10/28 06:19:04;;;;;;;;;;;14.50;99.90;;;;;;5049293;28;21894;-57
2022/10/28 06:21:32;;;;;;;;;;;14.50;99.90;;;;;;5050343;28;19928;-57
2022/10/28 06:23:58;;;;;;;;;;;14.60;99.90;;;;;;5049578;28;19936;-57
2022/10/28 06:26:25;;;;;;;;;;;14.60;99.90;;;;;;5046725;28;19929;-57
2022/10/28 06:28:52;;;;;;;;;;;14.60;99.90;;;;;;5050316;28;19928;-57
2022/10/28 06:31:18;;;;;;;;;;;14.60;99.90;;;;;;5049509;28;19951;-57
2022/10/28 06:33:45;;;;;;;;;;;14.60;99.90;;;;;;5049054;28;19940;-57
2022/10/28 06:36:12;;;;;;;;;;;14.60;99.90;;;;;;5049708;28;19928;-57
2022/10/28 06:38:40;;;;;;;;;;;14.60;99.90;;;;;;5048178;28;19928;-57
2022/10/28 06:41:06;;;;;;;;;;;14.60;99.90;;;;;;5049024;28;20347;-57
2022/10/28 06:43:33;;;;;;;;;;;14.60;99.90;;;;;;5045993;28;19944;-57
2022/10/28 06:46:01;;;;;;;;;;;14.50;99.90;;;;;;5048640;28;19928;-57
2022/10/28 06:48:27;;;;;;;;;;;14.60;99.90;;;;;;5047740;28;19977;-57
2022/10/28 06:50:54;;;;;;;;;;;14.50;99.90;;;;;;5048445;28;19928;-57
2022/10/28 06:53:21;;;;;;;;;;;14.50;99.90;;;;;;5048883;28;19940;-57
2022/10/28 06:55:53;;;;;;;;;;;14.50;99.90;;;;;;5047798;28;19940;-57
2022/10/28 06:58:19;;;;;;;;;;;14.50;99.90;;;;;;5046477;28;19929;-57
2022/10/28 07:00:46;;;;;;;;;;;14.60;99.90;;;;;;5046465;28;20443;-57
2022/10/28 07:03:13;;;;;;;;;;;14.60;99.90;;;;;;5045437;28;19939;-57
2022/10/28 07:05:40;;;;;;;;;;;14.60;99.90;;;;;;5046847;28;19929;-57
2022/10/28 07:08:06;;;;;;;;;;;14.70;99.90;;;;;;5046102;28;19928;-57
2022/10/28 07:10:33;;;;;;;;;;;14.70;99.90;;;;;;5045546;28;19936;-57
2022/10/28 07:13:01;;;;;;;;;;;14.70;99.90;;;;;;5045415;28;19933;-57
2022/10/28 07:15:28;;;;;;;;;;;14.70;99.90;;;;;;5044721;28;20120;-57
2022/10/28 07:17:55;;;;;;;;;;;14.80;99.90;;;;;;5044027;28;20013;-57
2022/10/28 07:20:22;;;;;;;;;;;14.90;99.90;;;;;;5044569;28;20070;-57
2022/10/28 07:22:48;;;;;;;;;;;14.90;99.90;;;;;;5046294;28;19932;-57
2022/10/28 07:25:15;;;;;;;;;;;15.00;99.90;;;;;;5047218;28;19935;-57
2022/10/28 07:27:42;;;;;;;;;;;15.00;99.90;;;;;;5047513;28;19939;-58
2022/10/28 07:30:11;;;;;;;;;;;15.10;99.90;;;;;;5048526;28;19935;-57
2022/10/28 07:32:38;;;;;;;;;;;15.10;99.90;;;;;;5047948;28;20019;-57
2022/10/28 07:35:05;;;;;;;;;;;15.10;99.90;;;;;;5048505;28;19928;-57
2022/10/28 07:37:31;;;;;;;;;;;15.20;99.90;;;;;;5048983;28;20303;-57
2022/10/28 07:39:58;;;;;;;;;;;15.20;99.90;;;;;;5049069;28;19928;-57
2022/10/28 07:42:25;;;;;;;;;;;15.20;99.90;;;;;;5048298;28;20383;-57
2022/10/28 07:44:51;;;;;;;;;;;15.30;99.90;;;;;;5051031;28;19928;-57
2022/10/28 07:47:20;;;;;;;;;;;15.40;99.90;;;;;;5053358;28;20083;-58
2022/10/28 07:49:47;;;;;;;;;;;15.40;99.90;;;;;;5052154;28;19929;-57
2022/10/28 07:52:14;;;;;;;;;;;15.40;99.90;;;;;;5053080;28;19932;-57
2022/10/28 07:54:40;;;;;;;;;;;15.40;99.90;;;;;;5053092;28;19939;-57
2022/10/28 07:57:07;;;;;;;;;;;15.50;99.90;;;;;;5051826;28;19929;-57
2022/10/28 07:59:34;;;;;;;;;;;15.50;99.90;;;;;;5052457;28;19935;-57
2022/10/28 08:02:00;;;;;;;;;;;15.50;99.90;;;;;;5051286;28;19939;-57
2022/10/28 08:04:30;;;;;;;;;;;15.60;99.90;;;;;;5049752;28;19929;-57
2022/10/28 08:06:57;;;;;;;;;;;15.60;99.90;;;;;;5050633;28;19936;-57
2022/10/28 08:09:24;;;;;;;;;;;15.60;99.90;;;;;;5049852;28;19928;-57
2022/10/28 08:11:50;;;;;;;;;;;15.70;99.90;;;;;;5050176;28;19944;-57
2022/10/28 08:14:17;;;;;;;;;;;15.80;99.90;;;;;;5052450;28;19928;-57
2022/10/28 08:16:45;;;;;;;;;;;15.80;99.90;;;;;;5051068;28;19929;-57
2022/10/28 08:19:11;;;;;;;;;;;15.90;99.90;;;;;;5051051;28;19929;-58
2022/10/28 08:21:39;;;;;;;;;;;15.90;99.90;;;;;;5051321;28;19933;-57
2022/10/28 08:24:07;;;;;;;;;;;15.90;99.90;;;;;;5050975;28;19936;-57
2022/10/28 08:26:33;;;;;;;;;;;16.00;99.90;;;;;;5050710;28;20022;-57
2022/10/28 08:29:00;;;;;;;;;;;16.00;99.90;;;;;;5050056;28;20632;-57
2022/10/28 08:31:27;;;;;;;;;;;16.00;99.90;;;;;;5051681;28;19933;-57
2022/10/28 08:33:54;;;;;;;;;;;16.10;99.90;;;;;;5049555;28;19929;-57
2022/10/28 08:36:20;;;;;;;;;;;16.10;99.90;;;;;;5050155;28;19929;-57
2022/10/28 08:38:48;;;;;;;;;;;16.20;99.90;;;;;;5050652;28;19933;-57
2022/10/28 08:41:20;;;;;;;;;;;16.30;99.90;;;;;;5050209;28;19932;-57
2022/10/28 08:43:54;;;;;;;;;;;16.40;99.90;;;;;;5049802;28;20304;-57
2022/10/28 08:46:24;;;;;;;;;;;16.40;99.90;;;;;;5050612;28;20263;-57
2022/10/28 08:48:51;;;;;;;;;;;16.50;99.90;;;;;;5049832;28;20414;-57
2022/10/28 08:51:19;;;;;;;;;;;16.50;99.90;;;;;;5046471;28;20715;-57
2022/10/28 08:53:47;;;;;;;;;;;16.60;99.90;;;;;;5050188;28;19963;-57
2022/10/28 08:56:19;;;;;;;;;;;16.60;99.90;;;;;;5045095;28;20440;-58
2022/10/28 08:58:46;;;;;;;;;;;16.60;99.90;;;;;;5048684;28;19929;-57
2022/10/28 09:01:22;;;;;;;;;;;16.70;99.90;;;;;;5048013;28;19933;-57
2022/10/28 09:03:50;;;;;;;;;;;16.70;99.90;;;;;;5050392;28;19929;-57
2022/10/28 09:06:17;;;;;;;;;;;16.80;99.90;;;;;;5051283;28;19929;-57
2022/10/28 09:08:45;;;;;;;;;;;16.80;99.90;;;;;;5051257;28;19928;-57
2022/10/28 09:11:37;;;;;;;;;;;16.80;99.90;;;;;;5049717;28;19933;-57
2022/10/28 09:14:10;;;;;;;;;;;16.80;99.90;;;;;;5047478;28;20017;-57
2022/10/28 09:16:41;;;;;;;;;;;16.80;99.90;;;;;;5051034;28;19929;-58
2022/10/28 09:19:14;;;;;;;;;;;16.80;99.90;;;;;;5045647;28;20747;-58
2022/10/28 09:21:45;;;;;;;;;;;16.80;99.90;;;;;;5049155;28;19932;-58
2022/10/28 09:24:15;;;;;;;;;;;16.80;99.90;;;;;;5050262;28;19929;-58
2022/10/28 09:26:46;;;;;;;;;;;16.90;99.90;;;;;;5048669;28;20456;-58
2022/10/28 09:29:21;;;;;;;;;;;16.80;99.90;;;;;;5048853;28;20394;-58
2022/10/28 09:31:52;;;;;;;;;;;16.90;99.90;;;;;;5049656;28;19932;-58
2022/10/28 09:34:23;;;;;;;;;;;16.90;99.90;;;;;;5051576;28;19929;-58
2022/10/28 09:36:54;;;;;;;;;;;16.90;99.90;;;;;;5048391;28;19929;-57
2022/10/28 09:39:24;;;;;;;;;;;16.90;99.90;;;;;;5050442;28;20059;-58
2022/10/28 09:41:54;;;;;;;;;;;16.90;99.90;;;;;;5049997;28;20029;-57
2022/10/28 09:44:22;;;;;;;;;;;16.90;99.90;;;;;;5046089;28;19929;-58
2022/10/28 09:46:51;;;;;;;;;;;16.90;99.90;;;;;;5048009;28;21755;-58
2022/10/28 09:49:19;;;;;;;;;;;16.90;99.90;;;;;;5048106;28;20089;-58
2022/10/28 09:51:47;;;;;;;;;;;16.90;99.90;;;;;;5048972;28;19933;-58
2022/10/28 09:54:14;;;;;;;;;;;16.90;99.90;;;;;;5049646;28;19935;-57
2022/10/28 09:56:40;;;;;;;;;;;16.90;99.90;;;;;;5045684;28;19929;-57
2022/10/28 09:59:11;;;;;;;;;;;16.90;99.90;;;;;;5049033;28;19928;-58
2022/10/28 10:01:39;;;;;;;;;;;16.90;99.90;;;;;;5048945;28;20229;-58
2022/10/28 10:04:13;;;;;;;;;;;17.00;99.90;;;;;;5049011;28;20023;-58
2022/10/28 10:06:41;;;;;;;;;;;17.00;99.90;;;;;;5047033;28;21675;-57
2022/10/28 10:09:14;;;;;;;;;;;17.00;99.90;;;;;;5050279;28;20051;-58
2022/10/28 10:11:41;;;;;;;;;;;17.00;99.90;;;;;;5051342;28;19995;-57
2022/10/28 10:14:11;;;;;;;;;;;17.10;99.90;;;;;;5052259;28;19928;-58
2022/10/28 10:16:40;;;;;;;;;;;17.10;99.90;;;;;;5052099;28;19940;-58
2022/10/28 10:19:08;;;;;;;;;;;17.20;99.90;;;;;;5051563;28;19928;-58
2022/10/28 10:21:40;;;;;;;;;;;17.30;99.90;;;;;;5051529;28;20122;-58
2022/10/28 10:24:21;;;;;;;;;;;17.30;99.90;;;;;;5052374;28;19929;-57
2022/10/28 10:26:47;;;;;;;;;;;17.40;99.90;;;;;;5051230;28;19929;-57
2022/10/28 10:29:15;;;;;;;;;;;17.50;99.90;;;;;;5052100;28;19939;-58
2022/10/28 10:31:42;;;;;;;;;;;17.50;99.90;;;;;;5051899;28;19933;-58
2022/10/28 10:34:20;;;;;;;;;;;17.50;99.90;;;;;;5052097;28;19940;-58
2022/10/28 10:36:49;;;;;;;;;;;17.50;99.90;;;;;;5051226;28;19928;-58
2022/10/28 10:39:20;;;;;;;;;;;17.50;99.90;;;;;;5049001;28;19929;-58
2022/10/28 10:41:46;;;;;;;;;;;17.60;99.90;;;;;;5048797;28;20383;-57
2022/10/28 10:44:32;;;;;;;;;;;17.60;99.90;;;;;;5049262;28;20358;-58
2022/10/28 10:47:19;;;;;;;;;;;17.70;99.90;;;;;;5049902;28;20078;-58
2022/10/28 10:49:46;;;;;;;;;;;17.80;99.90;;;;;;5049997;28;20304;-58
2022/10/28 10:52:17;;;;;;;;;;;17.80;99.90;;;;;;5050639;28;19932;-58
2022/10/28 10:54:46;;;;;;;;;;;17.90;99.90;;;;;;5051130;28;19928;-58
2022/10/28 10:57:16;;;;;;;;;;;17.90;99.90;;;;;;5051966;28;20470;-58
2022/10/28 10:59:46;;;;;;;;;;;18.00;99.90;;;;;;5051096;28;19939;-57
2022/10/28 11:02:21;;;;;;;;;;;18.00;99.90;;;;;;5049320;28;20797;-58
2022/10/28 11:04:51;;;;;;;;;;;18.10;99.90;;;;;;5050084;28;19940;-58
2022/10/28 11:07:17;;;;;;;;;;;18.00;99.90;;;;;;5051589;28;19983;-58
2022/10/28 11:09:47;;;;;;;;;;;18.10;99.90;;;;;;5050292;28;20584;-57
2022/10/28 11:12:14;;;;;;;;;;;18.10;99.90;;;;;;5050089;28;20750;-58
2022/10/28 11:14:53;;;;;;;;;;;18.10;99.90;;;;;;5050277;28;19935;-58
2022/10/28 11:17:24;;;;;;;;;;;18.20;99.90;;;;;;5050592;28;19928;-58
2022/10/28 11:19:53;;;;;;;;;;;18.30;99.90;;;;;;5050713;28;19935;-58
2022/10/28 11:22:24;;;;;;;;;;;18.30;99.90;;;;;;5050988;28;19932;-58
2022/10/28 11:25:00;;;;;;;;;;;18.30;99.90;;;;;;5051323;28;19954;-58
2022/10/28 11:27:44;;;;;;;;;;;18.40;99.90;;;;;;5050516;28;19928;-58
2022/10/28 11:30:15;;;;;;;;;;;18.50;99.90;;;;;;5050565;28;19929;-58
2022/10/28 11:32:48;;;;;;;;;;;18.60;99.90;;;;;;5050329;28;19960;-58
2022/10/28 11:35:31;;;;;;;;;;;18.70;99.90;;;;;;5050450;28;19929;-58
2022/10/28 11:38:05;;;;;;;;;;;18.80;99.90;;;;;;5050076;28;19929;-58
2022/10/28 11:40:37;;;;;;;;;;;18.80;99.90;;;;;;5050357;28;19966;-58
2022/10/28 11:43:12;;;;;;;;;;;18.90;99.90;;;;;;5050963;28;19933;-58
2022/10/28 11:45:41;;;;;;;;;;;18.90;99.90;;;;;;5050281;28;19929;-58
2022/10/28 11:48:18;;;;;;;;;;;19.00;99.90;;;;;;5050354;28;19936;-58
2022/10/28 11:50:49;;;;;;;;;;;19.00;99.90;;;;;;5050923;28;19929;-58
2022/10/28 11:53:36;;;;;;;;;;;19.10;99.90;;;;;;5049686;28;19932;-58
2022/10/28 11:56:08;;;;;;;;;;;19.10;99.90;;;;;;5046005;28;19928;-58
2022/10/28 11:58:40;;;;;;;;;;;19.20;99.90;;;;;;5049559;28;20803;-58
2022/10/28 12:01:15;;;;;;;;;;;19.20;99.90;;;;;;5050474;28;19929;-58
2022/10/28 12:03:57;;;;;;;;;;;19.30;99.90;;;;;;5050424;28;19940;-58
2022/10/28 12:06:28;;;;;;;;;;;19.30;99.90;;;;;;5050309;28;19928;-58
2022/10/28 12:09:06;;;;;;;;;;;19.30;99.90;;;;;;5052289;28;20930;-58
2022/10/28 12:11:39;;;;;;;;;;;19.30;99.90;;;;;;5051600;28;20380;-58
2022/10/28 12:14:10;;;;;;;;;;;19.30;99.90;;;;;;5050674;28;19933;-58
2022/10/28 12:16:40;;;;;;;;;;;19.20;99.90;;;;;;5050272;28;19936;-58
2022/10/28 12:19:13;;;;;;;;;;;19.20;99.90;;;;;;5051044;28;19929;-58
2022/10/28 12:21:40;;;;;;;;;;;19.20;99.90;;;;;;5050773;28;19936;-58
2022/10/28 12:24:12;;;;;;;;;;;19.20;99.90;;;;;;5049850;28;19933;-58
2022/10/28 12:26:40;;;;;;;;;;;19.10;99.90;;;;;;5049903;28;19928;-58
2022/10/28 12:29:13;;;;;;;;;;;19.10;99.90;;;;;;5050442;28;19935;-58
2022/10/28 12:31:42;;;;;;;;;;;19.10;99.90;;;;;;5052955;28;19935;-58
2022/10/28 12:34:12;;;;;;;;;;;19.00;99.90;;;;;;5052856;28;19932;-58
2022/10/28 12:36:41;;;;;;;;;;;19.00;99.90;;;;;;5054173;28;19935;-58
2022/10/28 12:39:12;;;;;;;;;;;19.00;99.90;;;;;;5053483;28;19935;-58
2022/10/28 12:41:47;;;;;;;;;;;18.90;99.90;;;;;;5053536;28;19929;-58
2022/10/28 12:44:16;;;;;;;;;;;18.90;99.90;;;;;;5053166;28;19939;-58
2022/10/28 12:46:47;;;;;;;;;;;18.90;99.90;;;;;;5053564;28;19929;-58
2022/10/28 12:49:17;;;;;;;;;;;18.90;99.90;;;;;;5053638;28;20307;-58
2022/10/28 12:51:44;;;;;;;;;;;18.90;99.90;;;;;;5054212;28;20639;-58
2022/10/28 12:54:16;;;;;;;;;;;18.80;99.90;;;;;;5052836;28;19932;-58
2022/10/28 12:56:48;;;;;;;;;;;18.80;99.90;;;;;;5053400;28;20085;-58
2022/10/28 12:59:17;;;;;;;;;;;18.80;99.90;;;;;;5050647;28;19932;-58
2022/10/28 13:01:45;;;;;;;;;;;18.80;99.90;;;;;;5052401;28;20094;-57
2022/10/28 13:04:12;;;;;;;;;;;18.80;99.90;;;;;;5052948;28;20854;-57
2022/10/28 13:06:53;;;;;;;;;;;18.80;99.90;;;;;;5053019;28;19935;-58
2022/10/28 13:09:32;;;;;;;;;;;18.80;99.90;;;;;;5052830;28;20310;-58
2022/10/28 13:12:16;;;;;;;;;;;18.80;99.90;;;;;;5051290;28;19980;-58
2022/10/28 13:15:04;;;;;;;;;;;18.80;99.90;;;;;;5049729;28;19939;-58
2022/10/28 13:17:38;;;;;;;;;;;18.80;99.90;;;;;;5048059;28;20316;-58
2022/10/28 13:20:12;;;;;;;;;;;18.80;99.90;;;;;;5052509;28;21713;-58
2022/10/28 13:22:47;;;;;;;;;;;18.90;99.90;;;;;;5052802;28;19928;-58
2022/10/28 13:25:21;;;;;;;;;;;18.80;99.90;;;;;;5050502;28;19940;-58
2022/10/28 13:27:54;;;;;;;;;;;18.90;99.90;;;;;;5050683;28;19928;-58
2022/10/28 13:30:21;;;;;;;;;;;18.90;99.90;;;;;;5051731;28;19928;-58
2022/10/28 13:32:50;;;;;;;;;;;18.90;99.90;;;;;;5051949;28;19929;-58
2022/10/28 13:35:21;;;;;;;;;;;18.90;99.90;;;;;;5052609;28;19933;-58
2022/10/28 13:37:50;;;;;;;;;;;18.90;99.90;;;;;;5052937;28;19929;-58
2022/10/28 13:40:21;;;;;;;;;;;18.90;99.90;;;;;;5053521;28;19932;-58
2022/10/28 13:42:48;;;;;;;;;;;18.90;99.90;;;;;;5052284;28;19929;-58
2022/10/28 13:45:39;;;;;;;;;;;18.90;99.90;;;;;;5051093;28;20479;-58
2022/10/28 13:48:24;;;;;;;;;;;19.00;99.90;;;;;;5036168;28;20501;-58
2022/10/28 13:50:51;;;;;;;;;;;18.90;99.90;;;;;;5052794;28;19979;-58
2022/10/28 13:53:42;;;;;;;;;;;18.90;99.90;;;;;;5052640;28;19935;-58
2022/10/28 13:56:26;;;;;;;;;;;18.90;99.90;;;;;;5050692;28;19932;-58
2022/10/28 13:58:55;;;;;;;;;;;18.90;99.90;;;;;;5051759;28;19935;-58
2022/10/28 14:01:39;;;;;;;;;;;18.90;99.90;;;;;;5051845;28;20453;-58
2022/10/28 14:04:19;;;;;;;;;;;18.80;99.90;;;;;;5051112;28;20461;-58
2022/10/28 14:06:46;;;;;;;;;;;18.80;99.90;;;;;;5051966;28;19933;-58
2022/10/28 14:09:19;;;;;;;;;;;18.80;99.90;;;;;;5051708;28;19940;-58
2022/10/28 14:11:46;;;;;;;;;;;18.80;99.90;;;;;;5052619;28;19928;-58
2022/10/28 14:14:16;;;;;;;;;;;18.80;99.90;;;;;;5052212;28;20358;-58
2022/10/28 14:16:44;;;;;;;;;;;18.80;99.90;;;;;;5050273;28;19938;-58
2022/10/28 14:19:16;;;;;;;;;;;18.80;99.90;;;;;;5049444;28;19928;-58
2022/10/28 14:21:44;;;;;;;;;;;18.80;99.90;;;;;;5049164;28;19935;-58
2022/10/28 14:24:13;;;;;;;;;;;18.70;99.90;;;;;;5050777;28;20451;-58
2022/10/28 14:26:58;;;;;;;;;;;18.70;99.90;;;;;;5050620;28;20067;-58
2022/10/28 14:29:29;;;;;;;;;;;18.70;99.90;;;;;;5048650;28;22116;-58